createdAt,value
2018-07-25T00:02:13.207Z,21.97
2018-07-25T00:04:43.164Z,44.10
2018-07-25T00:07:13.593Z,38.97
2018-07-25T00:09:44.363Z,47.83
2018-07-25T00:12:14.872Z,48.13
2018-07-25T00:14:44.797Z,46.97
2018-07-25T00:17:14.580Z,48.00
2018-07-25T00:19:45.138Z,38.27
2018-07-25T00:22:15.492Z,28.57
2018-07-25T00:24:46.266Z,24.47
2018-07-25T00:27:17.025Z,18.30
2018-07-25T00:29:47.738Z,20.73
2018-07-25T00:32:17.574Z,21.60
2018-07-25T00:34:48.516Z,21.30
2018-07-25T00:37:18.997Z,23.27
2018-07-25T00:39:49.519Z,19.97
2018-07-25T00:42:20.241Z,21.33
2018-07-25T00:44:50.180Z,22.13
2018-07-25T00:47:20.774Z,19.60
2018-07-25T00:49:51.401Z,19.87
2018-07-25T00:52:21.982Z,21.30
2018-07-25T00:54:52.441Z,19.57
2018-07-25T00:57:23.086Z,22.03
2018-07-25T00:59:53.704Z,24.50
2018-07-25T01:02:23.522Z,19.97
2018-07-25T01:04:54.205Z,23.13
2018-07-25T01:07:24.728Z,22.37
2018-07-25T01:09:55.512Z,24.43
2018-07-25T01:12:25.970Z,18.87
2018-07-25T01:14:56.665Z,22.60
2018-07-25T01:17:27.248Z,24.80
2018-07-25T01:19:57.772Z,27.03
2018-07-25T01:22:28.462Z,19.17
2018-07-25T01:24:59.223Z,24.53
2018-07-25T01:27:30.160Z,21.50
2018-07-25T01:30:01.009Z,23.77
2018-07-25T01:32:31.523Z,23.60
2018-07-25T01:35:02.204Z,23.93
2018-07-25T01:37:32.934Z,28.37
2018-07-25T01:40:03.665Z,27.77
2018-07-25T01:42:33.611Z,28.33
2018-07-25T01:45:04.449Z,28.17
2018-07-25T01:47:35.602Z,29.60
2018-07-25T01:50:06.464Z,29.67
2018-07-25T01:52:37.261Z,33.70
2018-07-25T01:55:07.540Z,29.03
2018-07-25T01:57:37.303Z,27.97
2018-07-25T02:00:07.840Z,28.60
2018-07-25T02:02:38.408Z,33.73
2018-07-25T02:05:08.871Z,31.53
2018-07-25T02:07:38.727Z,31.87
2018-07-25T02:10:08.699Z,29.53
2018-07-25T02:12:39.053Z,30.67
2018-07-25T02:15:09.682Z,30.50
2018-07-25T02:17:40.712Z,33.57
2018-07-25T02:20:11.250Z,27.97
2018-07-25T02:22:41.780Z,27.37
2018-07-25T02:25:11.776Z,32.50
2018-07-25T02:27:42.214Z,35.07
2018-07-25T02:30:12.999Z,45.13
2018-07-25T02:32:43.794Z,38.37
2018-07-25T02:35:14.973Z,40.67
2018-07-25T02:37:45.477Z,46.70
2018-07-25T02:40:15.356Z,42.80
2018-07-25T02:42:45.651Z,45.40
2018-07-25T02:45:16.214Z,39.70
2018-07-25T02:47:46.765Z,42.47
2018-07-25T02:50:16.991Z,37.03
2018-07-25T02:52:47.315Z,40.57
2018-07-25T02:55:18.137Z,40.77
2018-07-25T02:57:49.375Z,38.43
2018-07-25T03:00:19.813Z,43.53
2018-07-25T03:02:50.408Z,40.77
2018-07-25T03:05:20.927Z,49.77
2018-07-25T03:07:51.611Z,49.57
2018-07-25T03:10:22.043Z,43.93
2018-07-25T03:12:52.767Z,51.67
2018-07-25T03:15:23.348Z,52.40
2018-07-25T03:17:54.358Z,47.77
2018-07-25T03:20:24.272Z,48.10
2018-07-25T03:22:54.473Z,41.53
2018-07-25T03:25:24.955Z,48.30
2018-07-25T03:27:55.525Z,46.13
2018-07-25T03:30:26.149Z,39.37
2018-07-25T03:32:56.142Z,46.83
2018-07-25T03:35:27.032Z,41.10
2018-07-25T03:37:56.993Z,40.97
2018-07-25T03:40:27.520Z,48.37
2018-07-25T03:42:58.164Z,54.20
2018-07-25T03:45:28.686Z,42.77
2018-07-25T03:47:59.138Z,44.37
2018-07-25T03:50:29.817Z,44.43
2018-07-25T03:53:00.406Z,48.00
2018-07-25T03:55:30.820Z,52.53
2018-07-25T03:58:01.348Z,45.03
2018-07-25T04:00:31.867Z,38.87
2018-07-25T04:03:02.558Z,38.80
2018-07-25T04:05:33.366Z,38.97
2018-07-25T04:08:03.945Z,36.70
2018-07-25T04:10:33.995Z,39.83
2018-07-25T04:13:04.291Z,70.93
2018-07-25T04:15:34.651Z,52.73
2018-07-25T04:18:05.556Z,44.83
2018-07-25T04:20:36.270Z,44.47
2018-07-25T04:23:07.160Z,44.87
2018-07-25T04:25:36.980Z,42.20
2018-07-25T04:28:07.460Z,36.17
2018-07-25T04:30:38.213Z,37.77
2018-07-25T04:33:08.674Z,40.20
2018-07-25T04:35:39.087Z,39.80
2018-07-25T04:38:09.585Z,50.17
2018-07-25T04:40:40.162Z,48.53
2018-07-25T04:43:10.542Z,49.33
2018-07-25T04:45:41.388Z,42.57
2018-07-25T04:48:11.901Z,48.47
2018-07-25T04:50:42.615Z,53.13
2018-07-25T04:53:13.023Z,54.67
2018-07-25T04:55:43.768Z,54.97
2018-07-25T04:58:14.328Z,50.27
2018-07-25T05:00:45.371Z,48.07
2018-07-25T05:03:16.151Z,47.87
2018-07-25T05:05:46.074Z,48.63
2018-07-25T05:08:16.482Z,49.03
2018-07-25T05:10:47.031Z,39.03
2018-07-25T05:13:17.554Z,40.03
2018-07-25T05:15:47.962Z,39.80
2018-07-25T05:18:18.561Z,39.87
2018-07-25T05:20:49.010Z,48.80
2018-07-25T05:23:19.601Z,40.97
2018-07-25T05:25:50.043Z,52.93
2018-07-25T05:28:20.623Z,38.47
2018-07-25T05:30:50.851Z,42.50
2018-07-25T05:33:21.378Z,37.60
2018-07-25T05:35:51.869Z,42.67
2018-07-25T05:38:22.427Z,43.63
2018-07-25T05:40:52.786Z,39.27
2018-07-25T05:43:23.641Z,37.77
2018-07-25T05:45:54.529Z,41.03
2018-07-25T05:48:24.636Z,38.83
2018-07-25T05:50:55.282Z,38.60
2018-07-25T05:53:25.448Z,38.73
2018-07-25T05:55:56.315Z,38.57
2018-07-25T05:58:26.734Z,37.07
2018-07-25T06:00:57.642Z,39.07
2018-07-25T06:03:28.346Z,41.93
2018-07-25T06:05:58.876Z,34.57
2018-07-25T06:08:29.521Z,39.77
2018-07-25T06:10:59.989Z,33.27
2018-07-25T06:13:30.486Z,39.83
2018-07-25T06:16:01.129Z,40.97
2018-07-25T06:18:31.769Z,35.37
2018-07-25T06:21:02.217Z,35.93
2018-07-25T06:23:32.332Z,41.43
2018-07-25T06:26:02.717Z,41.97
2018-07-25T06:28:33.209Z,41.93
2018-07-25T06:31:03.775Z,39.23
2018-07-25T06:33:33.768Z,38.33
2018-07-25T06:36:05.230Z,44.53
2018-07-25T06:38:35.115Z,39.30
2018-07-25T06:41:05.768Z,39.23
2018-07-25T06:43:36.270Z,35.10
2018-07-25T06:46:07.145Z,32.17
2018-07-25T06:48:37.935Z,33.07
2018-07-25T06:51:09.038Z,30.10
2018-07-25T06:53:40.169Z,41.27
2018-07-25T06:56:10.708Z,36.60
2018-07-25T06:58:41.070Z,32.10
2018-07-25T07:01:11.525Z,33.93
2018-07-25T07:03:42.091Z,34.90
2018-07-25T07:06:12.715Z,38.20
2018-07-25T07:08:43.143Z,41.03
2018-07-25T07:11:13.724Z,39.10
2018-07-25T07:13:44.333Z,45.43
2018-07-25T07:16:14.754Z,41.13
2018-07-25T07:18:45.368Z,46.33
2018-07-25T07:21:15.218Z,40.67
2018-07-25T07:23:45.546Z,42.53
2018-07-25T07:26:15.875Z,51.17
2018-07-25T07:28:46.310Z,36.63
2018-07-25T07:31:16.821Z,43.87
2018-07-25T07:33:47.317Z,37.20
2018-07-25T07:36:17.719Z,30.67
2018-07-25T07:38:48.249Z,32.37
2018-07-25T07:41:18.760Z,43.40
2018-07-25T07:43:49.181Z,32.70
2018-07-25T07:46:19.770Z,30.77
2018-07-25T07:48:50.166Z,33.97
2018-07-25T07:51:20.856Z,32.97
2018-07-25T07:53:51.702Z,38.53
2018-07-25T07:56:22.072Z,37.17
2018-07-25T07:58:52.408Z,36.10
2018-07-25T08:01:22.879Z,34.10
2018-07-25T08:03:53.650Z,35.77
2018-07-25T08:06:24.081Z,31.57
2018-07-25T08:08:54.598Z,31.80
2018-07-25T08:11:24.950Z,26.07
2018-07-25T08:13:55.718Z,25.90
2018-07-25T08:16:26.324Z,25.20
2018-07-25T08:18:56.724Z,27.03
2018-07-25T08:21:27.443Z,23.37
2018-07-25T08:23:58.139Z,23.73
2018-07-25T08:26:28.699Z,21.63
2018-07-25T08:28:59.109Z,20.30
2018-07-25T08:31:29.535Z,24.90
2018-07-25T08:33:59.389Z,22.37
2018-07-25T08:36:30.242Z,18.53
2018-07-25T08:39:00.632Z,25.03
2018-07-25T08:41:30.513Z,26.37
2018-07-25T08:44:00.936Z,17.20
2018-07-25T08:46:31.354Z,15.57
2018-07-25T08:49:01.842Z,13.57
2018-07-25T08:51:32.389Z,17.73
2018-07-25T08:54:03.201Z,19.53
2018-07-25T08:56:34.081Z,18.90
2018-07-25T08:59:04.533Z,12.93
2018-07-25T09:01:34.976Z,13.97
2018-07-25T09:04:05.419Z,14.57
2018-07-25T09:06:35.997Z,15.03
2018-07-25T09:09:09.813Z,14.90
2018-07-25T09:11:40.505Z,9.53
2018-07-25T09:14:10.956Z,9.70
2018-07-25T09:16:41.497Z,7.87
2018-07-25T09:19:11.974Z,11.50
2018-07-25T09:21:43.374Z,14.10
2018-07-25T09:24:13.795Z,7.73
2018-07-25T09:26:44.289Z,5.47
2018-07-25T09:29:14.809Z,5.43
2018-07-25T09:31:45.273Z,7.40
2018-07-25T09:34:15.773Z,4.47
2018-07-25T09:36:46.676Z,4.83
2018-07-25T09:39:17.194Z,5.57
2018-07-25T09:41:47.757Z,4.20
2018-07-25T09:44:18.354Z,4.63
2018-07-25T09:46:48.910Z,4.40
2018-07-25T09:49:19.448Z,8.93
2018-07-25T09:51:50.162Z,7.07
2018-07-25T09:54:19.969Z,5.00
2018-07-25T09:56:50.291Z,7.03
2018-07-25T09:59:21.026Z,7.20
2018-07-25T10:01:51.558Z,7.57
2018-07-25T10:04:22.117Z,8.10
2018-07-25T10:06:52.595Z,8.37
2018-07-25T10:09:23.140Z,11.73
2018-07-25T10:11:53.684Z,6.90
2018-07-25T10:14:23.410Z,6.60
2018-07-25T10:16:53.792Z,6.23
2018-07-25T10:19:24.378Z,6.30
2018-07-25T10:21:55.122Z,8.30
2018-07-25T10:24:25.797Z,6.17
2018-07-25T10:26:55.608Z,5.63
2018-07-25T10:29:25.979Z,4.93
2018-07-25T10:31:56.526Z,5.50
2018-07-25T10:34:27.028Z,4.30
2018-07-25T10:36:57.519Z,6.00
2018-07-25T10:39:28.390Z,5.27
2018-07-25T10:41:58.883Z,6.00
2018-07-25T10:44:29.518Z,5.37
2018-07-25T10:47:00.172Z,7.60
2018-07-25T10:49:30.025Z,7.23
2018-07-25T10:52:00.220Z,6.73
2018-07-25T10:54:30.701Z,6.40
2018-07-25T10:57:01.233Z,4.13
2018-07-25T10:59:31.672Z,7.30
2018-07-25T11:02:02.196Z,4.97
2018-07-25T11:04:32.608Z,4.83
2018-07-25T11:07:03.143Z,4.70
2018-07-25T11:09:33.566Z,7.83
2018-07-25T11:12:04.408Z,5.30
2018-07-25T11:14:34.641Z,8.10
2018-07-25T11:17:04.990Z,5.80
2018-07-25T11:19:35.499Z,6.97
2018-07-25T11:22:05.981Z,4.60
2018-07-25T11:24:36.767Z,5.27
2018-07-25T11:27:07.287Z,4.20
2018-07-25T11:29:38.092Z,4.33
2018-07-25T11:32:08.443Z,4.63
2018-07-25T11:34:39.040Z,6.60
2018-07-25T11:37:15.982Z,9.53
2018-07-25T11:39:46.408Z,5.60
2018-07-25T11:42:16.990Z,5.87
2018-07-25T11:44:47.840Z,5.50
2018-07-25T11:47:18.268Z,6.03
2018-07-25T11:49:49.074Z,4.10
2018-07-25T11:52:19.486Z,4.37
2018-07-25T11:54:50.002Z,4.67
2018-07-25T11:57:20.603Z,6.93
2018-07-25T11:59:51.098Z,5.37
2018-07-25T12:02:22.094Z,6.50
2018-07-25T12:04:51.890Z,6.93
2018-07-25T12:07:22.268Z,4.30
2018-07-25T12:09:53.162Z,5.00
2018-07-25T12:12:23.938Z,4.13
2018-07-25T12:14:54.392Z,4.03
2018-07-25T12:17:25.090Z,5.00
2018-07-25T12:19:55.566Z,4.67
2018-07-25T12:22:26.229Z,4.90
2018-07-25T12:24:56.882Z,8.53
2018-07-25T12:27:27.354Z,6.37
2018-07-25T12:29:57.826Z,5.70
2018-07-25T12:32:28.856Z,7.40
2018-07-25T12:34:59.301Z,4.40
2018-07-25T12:37:30.291Z,4.37
2018-07-25T12:40:00.802Z,4.97
2018-07-25T12:42:31.369Z,5.40
2018-07-25T12:45:01.863Z,6.57
2018-07-25T12:47:32.802Z,5.67
2018-07-25T12:50:03.182Z,4.87
2018-07-25T12:52:34.828Z,5.17
2018-07-25T12:55:05.231Z,5.67
2018-07-25T12:57:35.147Z,4.43
2018-07-25T13:00:06.586Z,6.70
2018-07-25T13:02:39.238Z,4.30
2018-07-25T13:05:12.588Z,7.20
2018-07-25T13:07:43.446Z,5.47
2018-07-25T13:10:13.997Z,5.90
2018-07-25T13:12:44.368Z,6.20
2018-07-25T13:15:14.705Z,7.87
2018-07-25T13:17:45.720Z,4.73
2018-07-25T13:20:16.405Z,10.07
2018-07-25T13:22:47.303Z,6.83
2018-07-25T13:25:17.804Z,5.53
2018-07-25T13:27:48.286Z,4.83
2018-07-25T13:30:18.899Z,9.80
2018-07-25T13:32:48.765Z,5.30
2018-07-25T13:35:19.329Z,6.97
2018-07-25T13:37:49.769Z,5.30
2018-07-25T13:40:20.242Z,4.83
2018-07-25T13:42:51.692Z,6.33
2018-07-25T13:45:22.175Z,5.03
2018-07-25T13:47:52.728Z,7.90
2018-07-25T13:50:23.615Z,6.27
2018-07-25T13:52:55.725Z,6.77
2018-07-25T13:55:27.857Z,7.53
2018-07-25T13:57:58.705Z,6.80
2018-07-25T14:00:29.506Z,5.20
2018-07-25T14:02:59.581Z,3.90
2018-07-25T14:05:30.250Z,6.77
2018-07-25T14:08:01.295Z,3.50
2018-07-25T14:10:31.986Z,5.73
2018-07-25T14:13:02.341Z,6.30
2018-07-25T14:15:33.054Z,8.97
2018-07-25T14:18:03.039Z,4.30
2018-07-25T14:20:33.451Z,10.10
2018-07-25T14:23:04.061Z,12.10
2018-07-25T14:25:34.490Z,18.30
2018-07-25T14:28:05.061Z,10.20
2018-07-25T14:30:35.316Z,12.37
2018-07-25T14:33:04.991Z,8.23
2018-07-25T14:35:35.522Z,8.50
2018-07-25T14:38:07.067Z,9.07
2018-07-25T14:40:37.595Z,6.73
2018-07-25T14:43:07.346Z,8.77
2018-07-25T14:45:37.720Z,4.93
2018-07-25T14:48:08.423Z,7.20
2018-07-25T14:50:39.215Z,4.63
2018-07-25T14:53:09.898Z,8.33
2018-07-25T14:55:40.361Z,5.03
2018-07-25T14:58:11.336Z,6.40
2018-07-25T15:00:41.922Z,6.37
2018-07-25T15:03:11.899Z,7.80
2018-07-25T15:05:42.361Z,4.80
2018-07-25T15:08:13.135Z,4.27
2018-07-25T15:10:43.948Z,3.57
2018-07-25T15:13:14.260Z,7.00
2018-07-25T15:15:44.113Z,7.67
2018-07-25T15:18:14.534Z,4.73
2018-07-25T15:20:45.170Z,6.50
2018-07-25T15:23:23.754Z,5.70
2018-07-25T15:25:54.316Z,8.80
2018-07-25T15:28:24.964Z,9.37
2018-07-25T15:30:54.858Z,7.50
2018-07-25T15:33:25.383Z,6.03
2018-07-25T15:35:56.102Z,8.17
2018-07-25T15:38:26.702Z,9.13
2018-07-25T15:40:57.211Z,6.73
2018-07-25T15:43:27.718Z,6.80
2018-07-25T16:27:39.453Z,12.30
2018-07-25T16:30:11.925Z,11.93
2018-07-25T16:32:43.775Z,6.17
2018-07-25T16:35:15.770Z,10.77
2018-07-25T16:37:47.679Z,6.43
2018-07-25T16:40:19.850Z,10.83
2018-07-25T16:42:51.679Z,7.83
2018-07-25T16:45:23.721Z,11.40
2018-07-25T16:47:56.506Z,10.93
2018-07-25T16:50:28.480Z,9.63
2018-07-25T16:53:00.708Z,7.60
2018-07-25T16:55:32.966Z,6.27
2018-07-25T16:58:05.065Z,7.50
2018-07-25T17:00:37.348Z,7.17
2018-07-25T17:03:10.015Z,8.40
2018-07-25T17:05:42.643Z,8.83
2018-07-25T17:08:14.703Z,10.20
2018-07-25T17:10:47.356Z,13.23
2018-07-25T17:13:20.174Z,10.50
2018-07-25T17:15:52.723Z,10.43
2018-07-25T17:18:24.588Z,8.83
2018-07-25T17:20:56.367Z,15.87
2018-07-25T17:23:28.581Z,14.43
2018-07-25T17:26:01.016Z,9.03
2018-07-25T17:28:32.726Z,12.03
2018-07-25T17:31:04.610Z,10.73
2018-07-25T17:33:37.165Z,21.87
2018-07-25T17:36:07.854Z,27.90
2018-07-25T17:38:39.845Z,10.40
2018-07-25T17:41:12.273Z,10.67
2018-07-25T17:43:43.995Z,9.43
2018-07-25T17:46:16.471Z,10.33
2018-07-25T17:48:48.814Z,11.37
2018-07-25T17:51:21.538Z,17.50
2018-07-25T17:53:52.346Z,16.47
2018-07-25T17:56:24.437Z,13.47
2018-07-25T17:58:56.707Z,20.23
2018-07-25T18:01:27.790Z,15.57
2018-07-25T18:03:59.676Z,12.60
2018-07-25T18:06:31.799Z,10.27
2018-07-25T18:09:03.616Z,11.70
2018-07-25T18:11:38.398Z,12.33
2018-07-25T18:14:14.043Z,9.10
2018-07-25T18:16:46.887Z,10.77
2018-07-25T18:19:18.853Z,13.77
2018-07-25T18:21:50.038Z,9.97
2018-07-25T18:24:21.849Z,11.10
2018-07-25T18:26:54.045Z,13.70
2018-07-25T18:29:26.547Z,35.53
2018-07-25T18:31:58.393Z,30.67
2018-07-25T18:34:30.441Z,27.00
2018-07-25T18:37:02.488Z,20.67
2018-07-25T18:39:34.771Z,29.23
2018-07-25T18:42:07.444Z,32.30
2018-07-25T18:44:39.576Z,33.33
2018-07-25T18:47:12.767Z,29.10
2018-07-25T18:49:45.599Z,30.03
2018-07-25T18:52:20.706Z,27.77
2018-07-25T18:54:54.957Z,21.03
2018-07-25T18:57:27.446Z,16.23
2018-07-25T18:59:59.256Z,17.03
2018-07-25T19:02:32.078Z,23.87
2018-07-25T19:05:04.317Z,23.60
2018-07-25T19:07:37.478Z,19.87
2018-07-25T19:10:09.661Z,17.50
2018-07-25T19:12:41.375Z,18.23
2018-07-25T19:15:18.030Z,18.60
2018-07-25T19:17:49.976Z,18.50
2018-07-25T19:20:22.449Z,24.93
2018-07-25T19:22:54.827Z,16.17
2018-07-25T19:25:27.125Z,15.10
2018-07-25T19:27:58.966Z,18.47
2018-07-25T19:30:32.631Z,17.73
2018-07-25T19:33:04.549Z,31.73
2018-07-25T19:35:36.919Z,35.33
2018-07-25T19:38:08.936Z,24.03
2018-07-25T19:40:41.885Z,23.53
2018-07-25T19:43:14.989Z,27.57
2018-07-25T19:45:45.900Z,29.17
2018-07-25T19:48:17.306Z,36.77
2018-07-25T19:50:50.419Z,29.23
2018-07-25T19:53:23.129Z,27.53
2018-07-25T19:55:58.185Z,36.83
2018-07-25T19:58:31.089Z,32.03
2018-07-25T20:01:03.718Z,49.30
2018-07-25T20:03:43.192Z,53.23
2018-07-25T20:06:15.531Z,45.97
2018-07-25T20:08:47.487Z,42.67
2018-07-25T20:11:19.988Z,38.47
2018-07-25T20:13:57.125Z,35.00
2018-07-25T20:16:29.241Z,32.20
2018-07-25T20:19:01.434Z,28.70
2018-07-25T20:21:33.437Z,33.80
2018-07-25T20:24:05.388Z,32.93
2018-07-25T20:26:38.282Z,25.27
2018-07-25T20:29:10.981Z,24.63
2018-07-25T20:31:42.861Z,21.97
2018-07-25T20:34:14.870Z,34.37
2018-07-25T20:36:46.785Z,31.50
2018-07-25T20:39:20.429Z,24.30
2018-07-25T20:41:52.279Z,24.50
2018-07-25T20:44:25.094Z,24.23
2018-07-25T20:46:58.552Z,24.20
2018-07-25T20:49:30.720Z,31.53
2018-07-25T20:52:03.060Z,34.37
2018-07-25T20:54:35.784Z,38.43
2018-07-25T20:57:09.139Z,40.47
2018-07-25T20:59:43.667Z,28.90
2018-07-25T21:02:15.673Z,19.90
2018-07-25T21:04:49.191Z,26.43
2018-07-25T21:07:21.441Z,18.17
2018-07-25T21:09:53.516Z,14.43
2018-07-25T21:12:25.816Z,19.40
2018-07-25T21:14:57.865Z,15.47
2018-07-25T21:17:29.909Z,14.10
2018-07-25T21:20:02.550Z,16.23
2018-07-25T21:22:34.363Z,13.43
2018-07-25T21:25:08.288Z,18.00
2018-07-25T21:27:39.455Z,14.20
2018-07-25T21:30:11.202Z,13.60
2018-07-25T21:32:43.349Z,12.63
2018-07-25T21:35:14.257Z,14.10
2018-07-25T21:37:45.979Z,13.70
2018-07-25T21:40:17.668Z,17.83
2018-07-25T21:42:49.788Z,22.77
2018-07-25T21:45:22.472Z,15.27
2018-07-25T21:47:54.697Z,19.40
2018-07-25T21:50:26.511Z,13.10
2018-07-25T21:52:58.710Z,16.03
2018-07-25T21:55:30.800Z,19.43
2018-07-25T21:58:02.750Z,23.23
2018-07-25T22:00:34.862Z,22.33
2018-07-25T22:03:06.778Z,23.83
2018-07-25T22:05:39.006Z,28.67
2018-07-25T22:08:11.229Z,32.77
2018-07-25T22:10:42.873Z,27.30
2018-07-25T22:13:15.036Z,23.40
2018-07-25T22:15:46.749Z,21.80
2018-07-25T22:18:18.304Z,19.47
2018-07-25T22:20:50.183Z,20.07
2018-07-25T22:23:21.236Z,15.93
2018-07-25T22:25:51.842Z,15.07
2018-07-25T22:28:22.340Z,14.97
2018-07-25T22:30:52.733Z,15.77
2018-07-25T22:33:23.214Z,18.50
2018-07-25T22:35:53.088Z,20.13
2018-07-25T22:38:23.334Z,25.37
2018-07-25T22:40:53.804Z,20.57
2018-07-25T22:43:24.481Z,24.20
2018-07-25T22:45:54.862Z,18.80
2018-07-25T22:48:25.313Z,18.77
2018-07-25T22:50:55.885Z,23.07
2018-07-25T22:53:25.663Z,25.00
2018-07-25T22:55:56.137Z,22.47
2018-07-25T22:58:26.673Z,25.60
2018-07-25T23:00:57.511Z,31.90
2018-07-25T23:03:27.978Z,24.23
2018-07-25T23:05:58.481Z,27.50
2018-07-25T23:08:28.816Z,21.07
2018-07-25T23:10:59.151Z,22.83
2018-07-25T23:13:29.534Z,25.23
2018-07-25T23:15:59.920Z,21.27
2018-07-25T23:18:31.038Z,19.97
2018-07-25T23:21:01.646Z,22.07
2018-07-25T23:23:32.321Z,24.53
2018-07-25T23:26:03.649Z,20.37
2018-07-25T23:28:34.572Z,23.50
2018-07-25T23:31:05.195Z,21.13
2018-07-25T23:33:35.276Z,19.33
2018-07-25T23:36:06.062Z,15.80
2018-07-25T23:38:36.828Z,17.10
2018-07-25T23:41:07.339Z,18.93
2018-07-25T23:43:38.085Z,15.87
2018-07-25T23:46:08.605Z,17.63
2018-07-25T23:48:39.451Z,17.62
2018-07-25T23:51:10.142Z,17.40
2018-07-25T23:53:41.421Z,18.77
2018-07-25T23:56:12.138Z,19.07
2018-07-25T23:58:42.752Z,16.03
